CheckWX is a tool to help pilots better visualize weather data.  It is not intended as a substitute for an official pre-flight weather briefing.

12:43:48 UTC

EGLL METAR
London Heathrow Airport
London, United Kingdom
Current

24 mins ago

EGLL 201220Z AUTO 28005KT 240V360 9999 SCT043 18/09 Q1013
Observed
May-20 @ 12:20 UTC
Wind
  • 280° at 5 KTS
Visibility
10,000+ meters
Flight Rules
VFR
Cloud Levels
  • Scattered at 4,300' AGL
Temperature
18°C / 64°F
Dewpoint
C / 48°F
Humidity
56%
Altimeter
29.91" Hg
Pressure
1012.92 hPa
Previous

54 mins ago

EGLL 201150Z AUTO 32006KT 270V010 9999 FEW047 17/09 Q1013 TEMPO SHRA
Observed
May-20 @ 11:50 UTC
Wind
  • 320° at 6 KTS
Visibility
10,000+ meters
Flight Rules
VFR
Cloud Levels
  • Few at 4,700' AGL
Temperature
17°C / 63°F
Dewpoint
C / 48°F
Humidity
59%
Altimeter
29.91" Hg
Pressure
1012.92 hPa
Previous

1 hour ago

EGLL 201120Z AUTO 34006KT 260V050 9999 SCT037 19/08 Q1013 TEMPO SHRA
Observed
May-20 @ 11:20 UTC
Wind
  • 340° at 6 KTS
Visibility
10,000+ meters
Flight Rules
VFR
Cloud Levels
  • Scattered at 3,700' AGL
Temperature
19°C / 66°F
Dewpoint
C / 46°F
Humidity
49%
Altimeter
29.91" Hg
Pressure
1012.92 hPa